WHSE22 YBTL-YBTL
Flight info
| Callsign | WHSE22 |
|---|---|
| Flight time | 0h 31m |
| Altitude | 4000 |
| Route | YBTL N0140A040 YPUK YCOT SALOX SATCO VARBI YBTL |
| Aircraft | H47/M-SDFGRY/LB1 |
Departure
| Time | 2026-05-06 02:19 |
|---|---|
| Airport | Townsville Airport / RAAF Base Townsville (YBTL) |
Arrival
| Time | 2026-05-06 02:50 |
|---|---|
| Airport | Townsville Airport / RAAF Base Townsville (YBTL) |
| Time | Latitude | Longitude | Altitude | Speed | Heading |
|---|---|---|---|---|---|
| 2026-05-06 02:16 | -19.25629 | 146.75914 | 15 ft | 0 kts | 347° |
| 2026-05-06 02:18 | -19.25628 | 146.75914 | 15 ft | 1 kts | 348° |
| 2026-05-06 02:18 | -19.25557 | 146.75842 | 93 ft | 38 kts | 301° |
| 2026-05-06 02:18 | -19.25587 | 146.75358 | 417 ft | 114 kts | 221° |
| 2026-05-06 02:18 | -19.26079 | 146.74378 | 480 ft | 175 kts | 239° |
| 2026-05-06 02:19 | -19.26723 | 146.73227 | 679 ft | 182 kts | 238° |
| 2026-05-06 02:19 | -19.27348 | 146.72078 | 1093 ft | 185 kts | 239° |
| 2026-05-06 02:19 | -19.27954 | 146.70790 | 1003 ft | 202 kts | 243° |
| 2026-05-06 02:19 | -19.28549 | 146.69474 | 1016 ft | 191 kts | 242° |
| 2026-05-06 02:20 | -19.29663 | 146.67064 | 1547 ft | 182 kts | 242° |
| 2026-05-06 02:20 | -19.30197 | 146.65835 | 1687 ft | 186 kts | 243° |
| 2026-05-06 02:20 | -19.30729 | 146.64561 | 1694 ft | 190 kts | 243° |
| 2026-05-06 02:21 | -19.31367 | 146.63334 | 1575 ft | 193 kts | 235° |
| 2026-05-06 02:21 | -19.32222 | 146.62232 | 1525 ft | 191 kts | 223° |
| 2026-05-06 02:21 | -19.33139 | 146.61258 | 1564 ft | 187 kts | 222° |
| 2026-05-06 02:21 | -19.34009 | 146.60224 | 1633 ft | 187 kts | 226° |
| 2026-05-06 02:22 | -19.34745 | 146.59077 | 1713 ft | 188 kts | 237° |
| 2026-05-06 02:22 | -19.35391 | 146.57909 | 1960 ft | 181 kts | 237° |
| 2026-05-06 02:22 | -19.36016 | 146.56750 | 2152 ft | 185 kts | 237° |
| 2026-05-06 02:22 | -19.36670 | 146.55541 | 2251 ft | 191 kts | 238° |
| 2026-05-06 02:23 | -19.37333 | 146.54325 | 2222 ft | 194 kts | 237° |
| 2026-05-06 02:23 | -19.38021 | 146.53092 | 2220 ft | 190 kts | 235° |
| 2026-05-06 02:23 | -19.38731 | 146.51942 | 2471 ft | 183 kts | 232° |
| 2026-05-06 02:23 | -19.39407 | 146.50799 | 2678 ft | 186 kts | 236° |
| 2026-05-06 02:24 | -19.40049 | 146.49586 | 2806 ft | 190 kts | 238° |
| 2026-05-06 02:24 | -19.40685 | 146.48347 | 2787 ft | 195 kts | 239° |
| 2026-05-06 02:24 | -19.41318 | 146.47086 | 2795 ft | 190 kts | 239° |
| 2026-05-06 02:24 | -19.41959 | 146.45861 | 2866 ft | 193 kts | 237° |
| 2026-05-06 02:25 | -19.42648 | 146.44588 | 2629 ft | 202 kts | 237° |
| 2026-05-06 02:25 | -19.43329 | 146.43300 | 2439 ft | 194 kts | 239° |
| 2026-05-06 02:25 | -19.43600 | 146.42019 | 1925 ft | 169 kts | 271° |
| 2026-05-06 02:25 | -19.43718 | 146.40915 | 1590 ft | 132 kts | 223° |
| 2026-05-06 02:26 | -19.44369 | 146.40995 | 1459 ft | 110 kts | 124° |
| 2026-05-06 02:26 | -19.44578 | 146.41710 | 1255 ft | 77 kts | 97° |
| 2026-05-06 02:26 | -19.44649 | 146.42065 | 1207 ft | 31 kts | 82° |
| 2026-05-06 02:26 | -19.44691 | 146.42194 | 1176 ft | 19 kts | 64° |
| 2026-05-06 02:27 | -19.44694 | 146.42342 | 1204 ft | 19 kts | 49° |
| 2026-05-06 02:27 | -19.44697 | 146.42371 | 1163 ft | 6 kts | 22° |
| 2026-05-06 02:27 | -19.44697 | 146.42357 | 1163 ft | 11 kts | 355° |
| 2026-05-06 02:27 | -19.44698 | 146.42330 | 1157 ft | 2 kts | 327° |
| 2026-05-06 02:28 | -19.44694 | 146.42328 | 1155 ft | 0 kts | 327° |
| 2026-05-06 02:30 | -19.44692 | 146.42325 | 1155 ft | 3 kts | 283° |
| 2026-05-06 02:30 | -19.44687 | 146.42275 | 1157 ft | 17 kts | 284° |
| 2026-05-06 02:30 | -19.44632 | 146.42009 | 1203 ft | 49 kts | 291° |
| 2026-05-06 02:31 | -19.44535 | 146.41581 | 1458 ft | 70 kts | 277° |
| 2026-05-06 02:31 | -19.44819 | 146.40854 | 1427 ft | 150 kts | 240° |
| 2026-05-06 02:31 | -19.45427 | 146.39930 | 1400 ft | 150 kts | 221° |
| 2026-05-06 02:31 | -19.46308 | 146.39255 | 1443 ft | 159 kts | 211° |
| 2026-05-06 02:32 | -19.47204 | 146.38615 | 1541 ft | 157 kts | 207° |
| 2026-05-06 02:32 | -19.48095 | 146.37938 | 1340 ft | 152 kts | 219° |
| 2026-05-06 02:32 | -19.48712 | 146.37062 | 1329 ft | 149 kts | 231° |
| 2026-05-06 02:32 | -19.49332 | 146.36206 | 1375 ft | 140 kts | 222° |
| 2026-05-06 02:33 | -19.50169 | 146.35780 | 1355 ft | 138 kts | 192° |
| 2026-05-06 02:33 | -19.50797 | 146.35630 | 1277 ft | 142 kts | 182° |
| 2026-05-06 02:33 | -19.52082 | 146.34163 | 1281 ft | 70 kts | 218° |
| 2026-05-06 02:34 | -19.52323 | 146.33933 | 1166 ft | 30 kts | 194° |
| 2026-05-06 02:34 | -19.52463 | 146.33969 | 1106 ft | 12 kts | 174° |
| 2026-05-06 02:34 | -19.52568 | 146.34002 | 1094 ft | 19 kts | 151° |
| 2026-05-06 02:34 | -19.52609 | 146.34062 | 1084 ft | 5 kts | 130° |
| 2026-05-06 02:35 | -19.52617 | 146.34088 | 1077 ft | 3 kts | 108° |
| 2026-05-06 02:35 | -19.52607 | 146.34107 | 1076 ft | 2 kts | 87° |
| 2026-05-06 02:35 | -19.52604 | 146.34117 | 1067 ft | 0 kts | 79° |
| 2026-05-06 02:37 | -19.52610 | 146.34115 | 1087 ft | 7 kts | 95° |
| 2026-05-06 02:37 | -19.52675 | 146.34095 | 1080 ft | 19 kts | 206° |
| 2026-05-06 02:37 | -19.52907 | 146.33945 | 1157 ft | 59 kts | 192° |
| 2026-05-06 02:38 | -19.53242 | 146.34288 | 1348 ft | 93 kts | 97° |
| 2026-05-06 02:38 | -19.53465 | 146.35108 | 1355 ft | 142 kts | 103° |
| 2026-05-06 02:38 | -19.53687 | 146.36191 | 1677 ft | 157 kts | 98° |
| 2026-05-06 02:38 | -19.53752 | 146.37406 | 1834 ft | 170 kts | 90° |
| 2026-05-06 02:39 | -19.53837 | 146.38613 | 1952 ft | 162 kts | 95° |
| 2026-05-06 02:39 | -19.53958 | 146.39784 | 2259 ft | 155 kts | 95° |
| 2026-05-06 02:39 | -19.54181 | 146.40911 | 2540 ft | 160 kts | 103° |
| 2026-05-06 02:39 | -19.54668 | 146.41987 | 2651 ft | 164 kts | 117° |
| 2026-05-06 02:40 | -19.55298 | 146.42999 | 2621 ft | 168 kts | 116° |
| 2026-05-06 02:40 | -19.55690 | 146.44187 | 2452 ft | 173 kts | 103° |
| 2026-05-06 02:40 | -19.55833 | 146.45441 | 2224 ft | 174 kts | 92° |
| 2026-05-06 02:40 | -19.55669 | 146.46749 | 1968 ft | 181 kts | 78° |
| 2026-05-06 02:41 | -19.55231 | 146.47935 | 1960 ft | 162 kts | 65° |
| 2026-05-06 02:41 | -19.54626 | 146.48913 | 2274 ft | 162 kts | 56° |
| 2026-05-06 02:41 | -19.53843 | 146.49848 | 2392 ft | 176 kts | 46° |
| 2026-05-06 02:41 | -19.52841 | 146.50666 | 2094 ft | 186 kts | 42° |
| 2026-05-06 02:42 | -19.52368 | 146.51873 | 1926 ft | 170 kts | 84° |
| 2026-05-06 02:42 | -19.52255 | 146.52995 | 2620 ft | 147 kts | 83° |
| 2026-05-06 02:42 | -19.52067 | 146.54143 | 2775 ft | 171 kts | 78° |
| 2026-05-06 02:42 | -19.51637 | 146.55380 | 2334 ft | 182 kts | 67° |
| 2026-05-06 02:43 | -19.51146 | 146.56528 | 2490 ft | 161 kts | 68° |
| 2026-05-06 02:43 | -19.50756 | 146.57654 | 2705 ft | 167 kts | 73° |
| 2026-05-06 02:43 | -19.50340 | 146.58907 | 2003 ft | 200 kts | 71° |
| 2026-05-06 02:43 | -19.49727 | 146.60205 | 798 ft | 185 kts | 63° |
| 2026-05-06 02:44 | -19.49120 | 146.61290 | 982 ft | 163 kts | 60° |
| 2026-05-06 02:44 | -19.48645 | 146.62337 | 1299 ft | 157 kts | 69° |
| 2026-05-06 02:44 | -19.48369 | 146.63491 | 1542 ft | 167 kts | 77° |
| 2026-05-06 02:44 | -19.48087 | 146.64700 | 1586 ft | 171 kts | 74° |
| 2026-05-06 02:45 | -19.47296 | 146.65635 | 1565 ft | 176 kts | 36° |
| 2026-05-06 02:45 | -19.46156 | 146.66146 | 1554 ft | 182 kts | 27° |
| 2026-05-06 02:45 | -19.44998 | 146.66713 | 1547 ft | 183 kts | 28° |
| 2026-05-06 02:45 | -19.43855 | 146.67293 | 1663 ft | 180 kts | 29° |
| 2026-05-06 02:46 | -19.42760 | 146.67868 | 1836 ft | 174 kts | 30° |
| 2026-05-06 02:46 | -19.41717 | 146.68487 | 1923 ft | 169 kts | 32° |
| 2026-05-06 02:46 | -19.40699 | 146.69138 | 1581 ft | 175 kts | 32° |
| 2026-05-06 02:46 | -19.39647 | 146.69774 | 1316 ft | 169 kts | 31° |
| 2026-05-06 02:47 | -19.38671 | 146.70394 | 1318 ft | 161 kts | 33° |
| 2026-05-06 02:47 | -19.37713 | 146.71073 | 1210 ft | 168 kts | 36° |
| 2026-05-06 02:47 | -19.36719 | 146.71741 | 1017 ft | 170 kts | 29° |
| 2026-05-06 02:47 | -19.35570 | 146.72032 | 702 ft | 177 kts | 7° |
| 2026-05-06 02:48 | -19.34326 | 146.72142 | 291 ft | 181 kts | 8° |
| 2026-05-06 02:48 | -19.33299 | 146.72538 | 444 ft | 142 kts | 33° |
| 2026-05-06 02:48 | -19.32480 | 146.73167 | 726 ft | 152 kts | 40° |
| 2026-05-06 02:48 | -19.31608 | 146.73866 | 763 ft | 161 kts | 36° |
| 2026-05-06 02:49 | -19.30640 | 146.74496 | 775 ft | 162 kts | 31° |
| 2026-05-06 02:49 | -19.29611 | 146.75012 | 734 ft | 168 kts | 24° |
| 2026-05-06 02:49 | -19.28507 | 146.75317 | 741 ft | 163 kts | 8° |
| 2026-05-06 02:49 | -19.27393 | 146.75142 | 931 ft | 163 kts | 343° |
| 2026-05-06 02:50 | -19.26351 | 146.74609 | 822 ft | 165 kts | 338° |
| 2026-05-06 02:50 | -19.25418 | 146.74654 | 490 ft | 115 kts | 31° |
| 2026-05-06 02:50 | -19.25097 | 146.75322 | 293 ft | 103 kts | 86° |
| 2026-05-06 02:50 | -19.25383 | 146.75776 | 281 ft | 35 kts | 109° |
| 2026-05-06 02:51 | -19.25551 | 146.75848 | 94 ft | 19 kts | 151° |
| 2026-05-06 02:51 | -19.25614 | 146.75896 | 51 ft | 3 kts | 147° |
| 2026-05-06 02:51 | -19.25648 | 146.75919 | 25 ft | 12 kts | 162° |
| 2026-05-06 02:51 | -19.25691 | 146.75922 | 15 ft | 8 kts | 178° |
| 2026-05-06 02:52 | -19.25770 | 146.75919 | 15 ft | 13 kts | 185° |
| 2026-05-06 02:52 | -19.25802 | 146.75921 | 15 ft | 2 kts | 120° |
| 2026-05-06 02:52 | -19.25806 | 146.75936 | 17 ft | 3 kts | 104° |
| 2026-05-06 02:52 | -19.25808 | 146.75963 | 15 ft | 4 kts | 95° |